x

Halibut Bank (46146) Wave Buoy

8:00 - Thu 24th Apr 2014 All times are PDT. -7 hours from GMT.

  • Sig Wave height 2.6ft
  • Peak Period 4s
  • Wind
    20mph, 25mph gusts
  • Sea Temp 48°f
  • Ar Temp 49°f
  • Sea Pressure 1001.5mb
  • Halibut Bank
  • Halibut Bank

More Historic Weather Station data

Upgrade to MSW Pro to gain access to the past 30 days of data for over 8000 Wavebouys and Weather Stations around the globe.

Join Pro

Comparision Forecast

View Surf forecast
   
Qui 04/24 8:00 2.5ft 4s 20 25 mph 1001.5mb 48f 49f
7:00 3ft 4s 22 27 mph 1000.8mb 48f 49f
6:00 3ft 4s 22 27 mph 1000.5mb 48f 49f
5:00 3ft 4s 20 25 mph 1000.2mb 49f 48f
4:00 3ft 4s 25 29 mph 999.6mb 49f 49f
3:00 3ft 4s 22 27 mph 999.5mb 49f 48f
2:00 2.5ft 4s 22 27 mph 1000mb 49f 48f
1:00 2.5ft 3s 29 36 mph 1001mb 49f 49f
12:00 2ft 3s 20 22 mph 1001.8mb 49f 48f
Qua 04/23 11:00 1.6ft 3s 18 22 mph 1003.2mb 49f 49f
10:00 1.3ft 3s 18 20 mph 1004.4mb 50f 50f
9:00 1.3ft 3s 18 25 mph 1005.4mb 50f 51f
8:00 1ft 2s 16 20 mph 1005.9mb 51f 51f
7:00 1ft 3s 16 20 mph 1006.6mb 51f 51f
6:00 1ft 3s 13 16 mph 1007.8mb 51f 50f
5:00 1.3ft 3s 13 16 mph 1008.4mb 51f 50f
4:00 1.3ft 3s 18 20 mph 1009mb 51f 50f
3:00 1.6ft 3s 16 18 mph 1010.1mb 51f 49f
2:00 1.6ft 4s 16 18 mph 1010.8mb 50f 48f
1:00 1.6ft 4s 18 20 mph 1010.9mb 50f 48f
12:00 1.6ft 3s 16 18 mph 1011.2mb 50f 48f
11:00 1.6ft 3s 16 20 mph 1011.1mb 50f 48f
10:00 2ft 3s 18 20 mph 1011.2mb 50f 47f
9:00 2ft 4s 18 20 mph 1011mb 50f 47f
8:00 2ft 3s 18 22 mph 1011.1mb 50f 47f
7:00 1.3ft 3s 16 18 mph 1010.7mb 50f 47f
6:00 1.3ft 3s 16 18 mph 1010.4mb 50f 47f
5:00 1.3ft 3s 16 18 mph 1010.3mb 50f 47f
4:00 1.6ft 3s 18 20 mph 1009.9mb 50f 47f
3:00 1.6ft 4s 18 22 mph 1009.6mb 50f 47f
2:00 1.3ft 3s 18 22 mph 1009.5mb 50f 47f
1:00 1ft 2s 18 20 mph 1009.6mb 50f 47f
12:00 0.7ft 3s 16 18 mph 1009.6mb 50f 47f
Ter 04/22 11:00 0.7ft 3s 9 11 mph 1009.7mb 50f 47f
10:00 1.3ft 3s 11 13 mph 1010mb 50f 47f
9:00 1.3ft 3s 18 25 mph 1009.8mb 51f 48f
8:00 1.3ft 3s 16 18 mph 1009.4mb 51f 50f
7:00 1ft 3s 16 20 mph 1009.4mb 51f 51f
6:00 1ft 3s 9 11 mph 1009.8mb 51f 51f
5:00 1ft 3s 16 22 mph 1010.1mb 51f 51f
4:00 0.3ft 4s 9 11 mph 1010.2mb 52f 51f
3:00 0.3ft 4s 9 11 mph 1010.5mb 52f 50f
2:00 0.7ft 4s 4 7 mph 1010.4mb 53f 50f
1:00 1ft 3s 2
mph
1010.3mb 51f 50f
12:00 1ft 4s 4 7 mph 1010.2mb 50f 49f
11:00 1.3ft 3s 9 11 mph 1009.9mb 50f 48f
10:00 1.6ft 3s 11
mph
1009.4mb 50f 47f
9:00 1.6ft 4s 16 18 mph 1009.2mb 49f 47f
8:00 2ft 4s 16 18 mph 1009.3mb 49f 47f
7:00 2ft 4s 18 20 mph 1009.3mb 49f 47f
6:00 2.5ft 4s 18 20 mph 1009mb 49f 47f
5:00 2ft 4s 20 22 mph 1008.7mb 49f 47f
4:00 2ft 4s 20 25 mph 1008.7mb 49f 47f
3:00 1.3ft 3s 16 18 mph 1008.8mb 49f 47f
2:00 1.3ft 3s 18 20 mph 1008.9mb 49f 48f
1:00 1.3ft 3s 16 18 mph 1009.7mb 49f 48f
12:00 1.3ft 3s 16 18 mph 1009.8mb 49f 48f
Seg 04/21 11:00 1.3ft 3s 16 20 mph 1010.1mb 49f 48f
10:00 1.3ft 3s 16 18 mph 1010.5mb 49f 48f
9:00 1.3ft 3s 16 18 mph 1010.7mb 49f 48f
8:00 1ft 3s 16 18 mph 1011.2mb 49f 48f
7:00 1ft 3s 16 18 mph 1012.3mb 49f 48f
6:00 1.3ft 4s 16 18 mph 1012.8mb 49f 48f
5:00 1ft 3s 16 18 mph 1013.2mb 49f 49f
4:00 0.7ft 3s 13 16 mph 1013.7mb 49f 49f
3:00 0.7ft 4s 11 13 mph 1014.5mb 49f 49f
2:00 0.3ft 3s 9
mph
1015.2mb 49f 49f
1:00 0.3ft 6s 7 9 mph 1015.8mb 49f 48f
12:00 0.3ft 2s 11 13 mph 1016.3mb 48f 48f
11:00 0.7ft 2s 11 13 mph 1016.4mb 48f 47f
10:00 0.7ft 3s 11 13 mph 1016.7mb 48f 47f
9:00 1ft 3s 11
mph
1017mb 48f 47f
8:00 0.7ft 3s 13 16 mph 1017.3mb 47f 47f
7:00 0.7ft 3s 11 13 mph 1017.7mb 48f 47f
6:00 0.7ft 3s 7 9 mph 1017.8mb 48f 48f
5:00 0.7ft 2s 7 9 mph 1018.2mb 49f 48f
4:00 0.7ft 2s 7 9 mph 1018.6mb 49f 49f
3:00 1ft 2s 7 9 mph 1019mb 49f 49f
2:00 1ft 3s 2 4 mph 1019.5mb 49f 49f
1:00 1ft 3s 4 9 mph 1019.8mb 49f 50f
12:00 1ft 3s 11 16 mph 1019.7mb 49f 52f
Dom 04/20 11:00 1ft 2s 13 16 mph 1019.9mb 49f 51f
10:00 0.7ft 2s 11 13 mph 1020.5mb 49f 52f
9:00 0.7ft 2s 13
mph
1021.2mb 49f 51f
8:00 0.7ft 2s 9 11 mph 1021.7mb 50f 51f
7:00 0.7ft 2s 11 13 mph 1022mb 50f 51f
6:00 1ft 2s 11 13 mph 1022.4mb 50f 51f
5:00 1ft 3s 13 18 mph 1023.2mb 50f 52f